首页
METAR-TAF:

METAR-TAF

机场 :

Richard I. Bong Airport

苏必利尔, 威斯康辛州, 美国

纬度: 46-41-23N, 经度: 092-05-41W, 海拔: 205米

当前天气观测

该预报发布于14分钟前的05:35 UTC
风速6节,风向北转西北
温度 -12°C
湿度 72%
气压 1018 hPa
能見度: 16.1公里
阴天层高于2100英尺

METAR: KSUW 190535Z AUTO 33006KT 10SM OVC021 M12/M16 A3007 RMK AO2 T11201161

时间: 23:49 (05:49 UTC)


TAF: 丢失

超过4000个机场的气象观测和天气预报(METAR&TAF报告)。

可查询的气象台以黄色和红色小点在地图上表示。

将鼠标移到小点上方,可查看气象台名称。

然后点击查看天气观测和预报。

如需切换地图:点击带黑十字的绿色按钮放大地图;点击带横线的绿色按钮缩小地图;或者点击绿色箭头查看邻近地区的地图。


METAR-TAF: